Palmhurst, Texas
Current Conditions -  °F | °C
As of 11:53 AM on Tuesday 21 Oct 2014 (Local Time) from KMFE Reporting Station
Broken Clouds Broken Clouds  
Wind Chill: 79°   Ceiling: 7000
Heat Index: 82°   Visibility: 10mi
Dew Point: 73°   Wind: 6mph
Humidity: 82%   Direction: 20°NNE
Pressure: 29.98"   Gusts: NA
Location:  26.2155°N, 98.325°W
Report Text: KMFE 211653Z 02005KT 10SM FEW050 BKN070 BKN090 26/23 A2998 RMK AO2 RAE48 SLP152 P0017 T02610228
Loading
Personal Weather Stations






























Interactive Weather Map
Tropical Storm Tracking
New forecast layout! Learn more

10-Day Weather Forecast

Advertisements
Track Severe Weather on mobile